Airfield :
LOGIN :

Register | Disclaimer

   EN    FR    IT 

 










Legend :    VFR   Marginal VFR   IFR   Intensive IFR   Very Intensive IFR
Visi :
Ceiling :
>= 8 km
>= 3000ft
5 to 8 km
1000 to 3000 ft
1500m to 5 km
500 to 1000 ft
800 to 1500m
200 to 500 ft
< 800m
< 200 ft
Symbols :   Thunderstorms  Fog  Heavy snow  Heavy precipitations  Wind > 20 kt
SIGMETs :     Misc.  Thunderstorms  Icing  Turbulence  Mountain Waves  Volcanic Ashes






- Airport Elevation : 741 ft
- IATA code : PED


LKPD - Pardubice AB

CURRENT METAR :
  • 231700Z 29005KT CAVOK 08/01 Q1028 NOSIG RMK BLU BLU

EXPIRED METARs :
  • 231630Z 28005KT CAVOK 09/01 Q1028 NOSIG RMK BLU BLU
  • 231600Z 30005KT CAVOK 09/01 Q1027 NOSIG RMK BLU BLU
  • 231530Z 28010KT CAVOK 09/01 Q1027 NOSIG RMK BLU BLU
  • 231500Z 30005KT 9999 FEW040 BKN060 10/02 Q1027 NOSIG RMK BLU BLU
  • 231430Z 31007KT 9999 FEW045 BKN060 10/01 Q1027 NOSIG RMK BLU BLU

TAF TAF LKPD
Valid from the 23 at 12:00 until the 24 at 12:00 UTC


231100Z 2312/2412 29010KT 9999 BKN035
TEMPO 2312/2315 29012G22KT
BECMG 2315/2317 27003KT SCT040
TEMPO 2401/2408 3000 MIFG BR
PROB40
TEMPO 2402/2406 0600 FG BKN002



MET'MAP, your aeronautical weather chart ! - Copyright ORBIFLY December 2007 - Disclaimer

ORBIFLY MET'MAP TEAM :

Programming & Development : Alexandra Zaïnal
Concept & original design : Baudouin d'Aumeries
Assistance for programming : Marc-Olivier Méhu
Technical & hardware support : Manuel Goepfert

Contact : metmap@orbifly.com




SOURCES & CREDITS :

   NOAA